sensor_id;sensor_type;location;lat;lon;timestamp;temperature;humidity
76577;DHT22;65441;44.748;37.600;2023-04-25T00:01:30;12.70;81.55
76577;DHT22;65441;44.748;37.600;2023-04-25T00:03:59;12.57;81.36
76577;DHT22;65441;44.748;37.600;2023-04-25T00:06:28;12.57;81.43
76577;DHT22;65441;44.748;37.600;2023-04-25T00:08:59;12.56;81.45
76577;DHT22;65441;44.748;37.600;2023-04-25T00:11:28;12.63;81.64
76577;DHT22;65441;44.748;37.600;2023-04-25T00:13:58;12.65;81.86
76577;DHT22;65441;44.748;37.600;2023-04-25T00:16:31;12.81;79.98
76577;DHT22;65441;44.748;37.600;2023-04-25T00:19:02;12.85;81.38
76577;DHT22;65441;44.748;37.600;2023-04-25T00:21:31;12.91;80.55
76577;DHT22;65441;44.748;37.600;2023-04-25T00:24:01;12.92;79.85
76577;DHT22;65441;44.748;37.600;2023-04-25T00:26:30;12.70;79.77
76577;DHT22;65441;44.748;37.600;2023-04-25T00:28:59;12.73;81.89
76577;DHT22;65441;44.748;37.600;2023-04-25T00:31:29;12.85;81.87
76577;DHT22;65441;44.748;37.600;2023-04-25T00:33:58;12.76;81.22
76577;DHT22;65441;44.748;37.600;2023-04-25T00:36:27;12.85;81.39
76577;DHT22;65441;44.748;37.600;2023-04-25T00:38:57;12.88;80.20
76577;DHT22;65441;44.748;37.600;2023-04-25T00:41:26;12.71;80.67
76577;DHT22;65441;44.748;37.600;2023-04-25T00:43:57;12.73;79.86
76577;DHT22;65441;44.748;37.600;2023-04-25T00:46:27;12.69;80.90
76577;DHT22;65441;44.748;37.600;2023-04-25T00:48:58;12.69;80.67
76577;DHT22;65441;44.748;37.600;2023-04-25T00:51:27;12.41;80.98
76577;DHT22;65441;44.748;37.600;2023-04-25T00:53:57;12.07;80.57
76577;DHT22;65441;44.748;37.600;2023-04-25T00:56:26;12.20;82.44
76577;DHT22;65441;44.748;37.600;2023-04-25T00:58:56;12.15;81.61
76577;DHT22;65441;44.748;37.600;2023-04-25T01:01:25;12.13;82.26
76577;DHT22;65441;44.748;37.600;2023-04-25T01:03:56;11.88;82.68
76577;DHT22;65441;44.748;37.600;2023-04-25T01:06:27;11.85;83.73
76577;DHT22;65441;44.748;37.600;2023-04-25T01:08:56;11.84;83.61
76577;DHT22;65441;44.748;37.600;2023-04-25T01:11:26;11.88;82.10
76577;DHT22;65441;44.748;37.600;2023-04-25T01:13:55;11.94;82.61
76577;DHT22;65441;44.748;37.600;2023-04-25T01:16:24;11.79;82.83
76577;DHT22;65441;44.748;37.600;2023-04-25T01:18:54;12.08;82.81
76577;DHT22;65441;44.748;37.600;2023-04-25T01:21:25;12.07;81.39
76577;DHT22;65441;44.748;37.600;2023-04-25T01:23:55;12.06;82.59
76577;DHT22;65441;44.748;37.600;2023-04-25T01:26:25;12.03;82.65
76577;DHT22;65441;44.748;37.600;2023-04-25T01:28:54;12.25;81.38
76577;DHT22;65441;44.748;37.600;2023-04-25T01:31:24;11.96;81.61
76577;DHT22;65441;44.748;37.600;2023-04-25T01:33:53;11.90;82.36
76577;DHT22;65441;44.748;37.600;2023-04-25T01:36:24;12.33;82.32
76577;DHT22;65441;44.748;37.600;2023-04-25T01:38:54;12.22;82.97
76577;DHT22;65441;44.748;37.600;2023-04-25T01:41:23;12.15;82.15
76577;DHT22;65441;44.748;37.600;2023-04-25T01:43:52;11.96;82.90
76577;DHT22;65441;44.748;37.600;2023-04-25T01:46:22;11.99;84.13
76577;DHT22;65441;44.748;37.600;2023-04-25T01:48:50;12.18;84.20
76577;DHT22;65441;44.748;37.600;2023-04-25T01:51:19;12.33;83.42
76577;DHT22;65441;44.748;37.600;2023-04-25T01:53:50;12.48;81.72
76577;DHT22;65441;44.748;37.600;2023-04-25T01:56:19;12.43;81.94
76577;DHT22;65441;44.748;37.600;2023-04-25T01:58:49;11.96;84.39
76577;DHT22;65441;44.748;37.600;2023-04-25T02:01:20;12.11;84.47
76577;DHT22;65441;44.748;37.600;2023-04-25T02:04:04;11.98;84.62
76577;DHT22;65441;44.748;37.600;2023-04-25T02:06:37;12.00;85.13
76577;DHT22;65441;44.748;37.600;2023-04-25T02:09:11;12.32;84.41
76577;DHT22;65441;44.748;37.600;2023-04-25T02:11:45;12.26;84.62
76577;DHT22;65441;44.748;37.600;2023-04-25T02:14:37;12.43;83.81
76577;DHT22;65441;44.748;37.600;2023-04-25T02:17:28;12.04;84.81
76577;DHT22;65441;44.748;37.600;2023-04-25T02:19:59;11.59;86.96
76577;DHT22;65441;44.748;37.600;2023-04-25T02:22:28;11.39;88.15
76577;DHT22;65441;44.748;37.600;2023-04-25T02:24:59;11.30;88.72
76577;DHT22;65441;44.748;37.600;2023-04-25T02:27:28;11.25;88.64
76577;DHT22;65441;44.748;37.600;2023-04-25T02:29:57;11.23;89.02
76577;DHT22;65441;44.748;37.600;2023-04-25T02:32:26;11.22;88.75
76577;DHT22;65441;44.748;37.600;2023-04-25T02:34:55;11.13;89.07
76577;DHT22;65441;44.748;37.600;2023-04-25T02:37:27;11.13;88.99
76577;DHT22;65441;44.748;37.600;2023-04-25T02:39:57;11.08;88.44
76577;DHT22;65441;44.748;37.600;2023-04-25T02:42:27;11.11;88.51
76577;DHT22;65441;44.748;37.600;2023-04-25T02:44:58;11.13;88.41
76577;DHT22;65441;44.748;37.600;2023-04-25T02:47:27;11.15;89.38
76577;DHT22;65441;44.748;37.600;2023-04-25T02:49:56;11.13;89.79
76577;DHT22;65441;44.748;37.600;2023-04-25T02:52:25;11.09;89.87
76577;DHT22;65441;44.748;37.600;2023-04-25T02:55:01;11.13;89.97
76577;DHT22;65441;44.748;37.600;2023-04-25T02:57:32;11.11;89.66
76577;DHT22;65441;44.748;37.600;2023-04-25T03:00:01;11.04;89.39
76577;DHT22;65441;44.748;37.600;2023-04-25T03:02:31;11.01;89.05
76577;DHT22;65441;44.748;37.600;2023-04-25T03:04:59;10.99;89.46
76577;DHT22;65441;44.748;37.600;2023-04-25T03:07:29;11.00;89.09
76577;DHT22;65441;44.748;37.600;2023-04-25T03:09:58;11.02;89.50
76577;DHT22;65441;44.748;37.600;2023-04-25T03:12:27;11.04;89.45
76577;DHT22;65441;44.748;37.600;2023-04-25T03:14:57;11.12;88.89
76577;DHT22;65441;44.748;37.600;2023-04-25T03:17:26;11.16;88.67
76577;DHT22;65441;44.748;37.600;2023-04-25T03:19:55;11.10;87.95
76577;DHT22;65441;44.748;37.600;2023-04-25T03:22:30;11.00;87.45
76577;DHT22;65441;44.748;37.600;2023-04-25T03:24:59;11.03;87.32
76577;DHT22;65441;44.748;37.600;2023-04-25T03:27:28;11.10;87.40
76577;DHT22;65441;44.748;37.600;2023-04-25T03:29:58;11.11;87.77
76577;DHT22;65441;44.748;37.600;2023-04-25T03:32:27;11.03;87.12
76577;DHT22;65441;44.748;37.600;2023-04-25T03:34:55;11.02;87.18
76577;DHT22;65441;44.748;37.600;2023-04-25T03:37:26;11.05;86.83
76577;DHT22;65441;44.748;37.600;2023-04-25T03:39:55;11.10;86.01
76577;DHT22;65441;44.748;37.600;2023-04-25T03:42:28;11.02;86.10
76577;DHT22;65441;44.748;37.600;2023-04-25T03:44:59;11.00;86.93
76577;DHT22;65441;44.748;37.600;2023-04-25T03:47:29;10.98;87.41
76577;DHT22;65441;44.748;37.600;2023-04-25T03:49:58;11.04;88.13
76577;DHT22;65441;44.748;37.600;2023-04-25T03:52:30;11.09;87.82
76577;DHT22;65441;44.748;37.600;2023-04-25T03:55:00;11.13;87.67
76577;DHT22;65441;44.748;37.600;2023-04-25T03:57:29;11.22;87.99
76577;DHT22;65441;44.748;37.600;2023-04-25T04:00:01;11.22;88.23
76577;DHT22;65441;44.748;37.600;2023-04-25T04:02:40;11.20;88.41
76577;DHT22;65441;44.748;37.600;2023-04-25T04:05:11;11.19;88.51
76577;DHT22;65441;44.748;37.600;2023-04-25T04:07:46;11.20;88.58
76577;DHT22;65441;44.748;37.600;2023-04-25T04:10:17;11.24;88.83
76577;DHT22;65441;44.748;37.600;2023-04-25T04:12:46;11.26;88.51
76577;DHT22;65441;44.748;37.600;2023-04-25T04:15:16;11.34;88.52
76577;DHT22;65441;44.748;37.600;2023-04-25T04:17:48;11.38;88.38
76577;DHT22;65441;44.748;37.600;2023-04-25T04:20:17;11.38;88.82
76577;DHT22;65441;44.748;37.600;2023-04-25T04:22:49;11.37;88.45
76577;DHT22;65441;44.748;37.600;2023-04-25T04:25:19;11.43;88.64
76577;DHT22;65441;44.748;37.600;2023-04-25T04:28:14;11.53;88.62
76577;DHT22;65441;44.748;37.600;2023-04-25T04:30:53;11.49;88.82
76577;DHT22;65441;44.748;37.600;2023-04-25T04:33:23;11.43;89.17
76577;DHT22;65441;44.748;37.600;2023-04-25T04:35:58;11.49;89.58
76577;DHT22;65441;44.748;37.600;2023-04-25T04:38:29;11.51;89.73
76577;DHT22;65441;44.748;37.600;2023-04-25T04:41:03;11.47;89.54
76577;DHT22;65441;44.748;37.600;2023-04-25T04:43:53;11.52;90.46
76577;DHT22;65441;44.748;37.600;2023-04-25T04:46:37;11.56;90.36
76577;DHT22;65441;44.748;37.600;2023-04-25T04:49:30;11.59;90.29
76577;DHT22;65441;44.748;37.600;2023-04-25T04:52:19;11.60;89.66
76577;DHT22;65441;44.748;37.600;2023-04-25T04:55:14;11.71;89.95
76577;DHT22;65441;44.748;37.600;2023-04-25T04:58:08;11.69;90.06
76577;DHT22;65441;44.748;37.600;2023-04-25T05:00:46;11.74;89.83
76577;DHT22;65441;44.748;37.600;2023-04-25T05:03:49;11.73;89.83
76577;DHT22;65441;44.748;37.600;2023-04-25T05:06:35;11.75;90.09
76577;DHT22;65441;44.748;37.600;2023-04-25T05:09:39;11.74;89.50
76577;DHT22;65441;44.748;37.600;2023-04-25T05:12:31;11.88;90.15
76577;DHT22;65441;44.748;37.600;2023-04-25T05:15:17;11.92;89.76
76577;DHT22;65441;44.748;37.600;2023-04-25T05:18:15;12.11;90.28
76577;DHT22;65441;44.748;37.600;2023-04-25T05:20:58;12.14;89.93
76577;DHT22;65441;44.748;37.600;2023-04-25T05:23:49;12.16;88.83
76577;DHT22;65441;44.748;37.600;2023-04-25T05:26:37;12.10;88.75
76577;DHT22;65441;44.748;37.600;2023-04-25T05:29:32;12.07;89.12
76577;DHT22;65441;44.748;37.600;2023-04-25T05:32:22;12.10;88.52
76577;DHT22;65441;44.748;37.600;2023-04-25T05:34:52;12.16;88.64
76577;DHT22;65441;44.748;37.600;2023-04-25T05:37:38;12.11;89.16
76577;DHT22;65441;44.748;37.600;2023-04-25T05:40:12;12.07;89.73
76577;DHT22;65441;44.748;37.600;2023-04-25T05:43:06;12.11;88.47
76577;DHT22;65441;44.748;37.600;2023-04-25T05:46:04;12.13;88.28
76577;DHT22;65441;44.748;37.600;2023-04-25T05:49:00;12.15;89.57
76577;DHT22;65441;44.748;37.600;2023-04-25T05:52:04;12.10;89.01
76577;DHT22;65441;44.748;37.600;2023-04-25T05:54:40;12.14;88.56
76577;DHT22;65441;44.748;37.600;2023-04-25T05:57:20;12.15;87.77
76577;DHT22;65441;44.748;37.600;2023-04-25T05:59:50;12.22;88.32
76577;DHT22;65441;44.748;37.600;2023-04-25T06:02:19;12.18;87.83
76577;DHT22;65441;44.748;37.600;2023-04-25T06:04:50;12.15;87.19
76577;DHT22;65441;44.748;37.600;2023-04-25T06:07:19;12.19;87.32
76577;DHT22;65441;44.748;37.600;2023-04-25T06:09:49;12.34;88.02
76577;DHT22;65441;44.748;37.600;2023-04-25T06:12:18;12.25;88.76
76577;DHT22;65441;44.748;37.600;2023-04-25T06:14:49;12.30;87.80
76577;DHT22;65441;44.748;37.600;2023-04-25T06:17:18;12.26;85.26
76577;DHT22;65441;44.748;37.600;2023-04-25T06:19:49;12.29;86.16
76577;DHT22;65441;44.748;37.600;2023-04-25T06:22:19;12.35;86.35
76577;DHT22;65441;44.748;37.600;2023-04-25T06:24:49;12.38;87.93
76577;DHT22;65441;44.748;37.600;2023-04-25T06:27:20;12.36;86.62
76577;DHT22;65441;44.748;37.600;2023-04-25T06:29:49;12.44;87.32
76577;DHT22;65441;44.748;37.600;2023-04-25T06:32:17;12.43;85.55
76577;DHT22;65441;44.748;37.600;2023-04-25T06:34:47;12.55;86.40
76577;DHT22;65441;44.748;37.600;2023-04-25T06:37:16;12.43;85.36
76577;DHT22;65441;44.748;37.600;2023-04-25T06:39:52;12.31;84.92
76577;DHT22;65441;44.748;37.600;2023-04-25T06:42:21;12.43;86.82
76577;DHT22;65441;44.748;37.600;2023-04-25T06:44:58;12.49;86.31
76577;DHT22;65441;44.748;37.600;2023-04-25T06:47:31;12.61;86.00
76577;DHT22;65441;44.748;37.600;2023-04-25T06:50:01;12.57;86.39
76577;DHT22;65441;44.748;37.600;2023-04-25T06:52:31;12.69;85.94
76577;DHT22;65441;44.748;37.600;2023-04-25T06:55:02;12.76;85.20
76577;DHT22;65441;44.748;37.600;2023-04-25T06:57:49;12.77;85.87
76577;DHT22;65441;44.748;37.600;2023-04-25T07:00:50;12.77;85.63
76577;DHT22;65441;44.748;37.600;2023-04-25T07:03:21;12.81;84.87
76577;DHT22;65441;44.748;37.600;2023-04-25T07:05:53;12.74;83.74
76577;DHT22;65441;44.748;37.600;2023-04-25T07:08:22;12.78;84.73
76577;DHT22;65441;44.748;37.600;2023-04-25T07:10:53;12.77;83.79
76577;DHT22;65441;44.748;37.600;2023-04-25T07:13:21;12.79;84.36
76577;DHT22;65441;44.748;37.600;2023-04-25T07:15:50;12.87;84.32
76577;DHT22;65441;44.748;37.600;2023-04-25T07:18:21;13.15;84.84
76577;DHT22;65441;44.748;37.600;2023-04-25T07:20:51;13.11;84.02
76577;DHT22;65441;44.748;37.600;2023-04-25T07:23:20;13.10;84.21
76577;DHT22;65441;44.748;37.600;2023-04-25T07:25:49;13.09;83.72
76577;DHT22;65441;44.748;37.600;2023-04-25T07:28:23;13.16;84.17
76577;DHT22;65441;44.748;37.600;2023-04-25T07:30:52;13.16;83.43
76577;DHT22;65441;44.748;37.600;2023-04-25T07:33:20;13.09;83.05
76577;DHT22;65441;44.748;37.600;2023-04-25T07:35:51;13.18;84.85
76577;DHT22;65441;44.748;37.600;2023-04-25T07:38:20;13.04;82.41
76577;DHT22;65441;44.748;37.600;2023-04-25T07:40:50;12.90;83.65
76577;DHT22;65441;44.748;37.600;2023-04-25T07:43:19;13.00;83.20
76577;DHT22;65441;44.748;37.600;2023-04-25T07:45:58;13.05;83.45
76577;DHT22;65441;44.748;37.600;2023-04-25T07:48:29;13.24;82.93
76577;DHT22;65441;44.748;37.600;2023-04-25T07:50:58;13.35;82.02
76577;DHT22;65441;44.748;37.600;2023-04-25T07:53:27;13.36;81.49
76577;DHT22;65441;44.748;37.600;2023-04-25T07:56:02;13.24;81.70
76577;DHT22;65441;44.748;37.600;2023-04-25T07:58:34;13.24;81.43
76577;DHT22;65441;44.748;37.600;2023-04-25T08:01:06;13.31;81.39
76577;DHT22;65441;44.748;37.600;2023-04-25T08:03:46;13.27;82.13
76577;DHT22;65441;44.748;37.600;2023-04-25T08:06:22;13.34;81.02
76577;DHT22;65441;44.748;37.600;2023-04-25T08:09:08;13.26;81.49
76577;DHT22;65441;44.748;37.600;2023-04-25T08:11:39;13.26;82.84
76577;DHT22;65441;44.748;37.600;2023-04-25T08:14:11;13.48;80.49
76577;DHT22;65441;44.748;37.600;2023-04-25T08:16:43;13.48;79.86
76577;DHT22;65441;44.748;37.600;2023-04-25T08:19:13;13.48;79.41
76577;DHT22;65441;44.748;37.600;2023-04-25T08:21:42;13.43;79.42
76577;DHT22;65441;44.748;37.600;2023-04-25T08:24:15;13.43;81.18
76577;DHT22;65441;44.748;37.600;2023-04-25T08:26:44;13.54;80.07
76577;DHT22;65441;44.748;37.600;2023-04-25T08:29:16;13.53;80.11
76577;DHT22;65441;44.748;37.600;2023-04-25T08:31:47;13.65;81.01
76577;DHT22;65441;44.748;37.600;2023-04-25T08:34:16;13.60;79.05
76577;DHT22;65441;44.748;37.600;2023-04-25T08:36:48;13.82;80.09
76577;DHT22;65441;44.748;37.600;2023-04-25T08:39:38;13.74;78.17
76577;DHT22;65441;44.748;37.600;2023-04-25T08:42:31;14.20;80.32
76577;DHT22;65441;44.748;37.600;2023-04-25T08:45:03;14.14;78.05
76577;DHT22;65441;44.748;37.600;2023-04-25T08:47:39;14.22;77.07
76577;DHT22;65441;44.748;37.600;2023-04-25T08:50:09;14.26;77.44
76577;DHT22;65441;44.748;37.600;2023-04-25T08:52:43;14.50;76.50
76577;DHT22;65441;44.748;37.600;2023-04-25T08:55:15;14.73;76.82
76577;DHT22;65441;44.748;37.600;2023-04-25T08:57:45;15.59;74.61
76577;DHT22;65441;44.748;37.600;2023-04-25T09:00:14;15.08;73.06
76577;DHT22;65441;44.748;37.600;2023-04-25T09:02:47;15.10;75.01
76577;DHT22;65441;44.748;37.600;2023-04-25T09:05:16;15.06;74.84
76577;DHT22;65441;44.748;37.600;2023-04-25T09:07:45;15.01;73.49
76577;DHT22;65441;44.748;37.600;2023-04-25T09:10:15;14.77;74.80
76577;DHT22;65441;44.748;37.600;2023-04-25T09:12:45;15.39;73.03
76577;DHT22;65441;44.748;37.600;2023-04-25T09:15:32;15.80;71.04
76577;DHT22;65441;44.748;37.600;2023-04-25T09:18:22;15.76;70.82
76577;DHT22;65441;44.748;37.600;2023-04-25T09:20:58;15.76;69.90
76577;DHT22;65441;44.748;37.600;2023-04-25T09:23:27;15.75;69.10
76577;DHT22;65441;44.748;37.600;2023-04-25T09:25:56;15.38;70.71
76577;DHT22;65441;44.748;37.600;2023-04-25T09:28:26;15.31;69.04
76577;DHT22;65441;44.748;37.600;2023-04-25T09:30:56;15.44;71.38
76577;DHT22;65441;44.748;37.600;2023-04-25T09:33:33;15.46;68.53
76577;DHT22;65441;44.748;37.600;2023-04-25T09:36:12;15.16;71.60
76577;DHT22;65441;44.748;37.600;2023-04-25T09:39:12;15.16;72.91
76577;DHT22;65441;44.748;37.600;2023-04-25T09:41:53;15.38;69.84
76577;DHT22;65441;44.748;37.600;2023-04-25T09:44:23;15.38;68.58
76577;DHT22;65441;44.748;37.600;2023-04-25T09:46:54;15.23;70.13
76577;DHT22;65441;44.748;37.600;2023-04-25T09:49:27;15.06;72.41
76577;DHT22;65441;44.748;37.600;2023-04-25T09:52:43;15.45;72.74
76577;DHT22;65441;44.748;37.600;2023-04-25T09:55:20;15.66;71.30
76577;DHT22;65441;44.748;37.600;2023-04-25T09:57:53;15.86;69.36
76577;DHT22;65441;44.748;37.600;2023-04-25T10:00:25;15.67;70.20
76577;DHT22;65441;44.748;37.600;2023-04-25T10:02:54;15.53;69.65
76577;DHT22;65441;44.748;37.600;2023-04-25T10:05:44;15.41;70.47
76577;DHT22;65441;44.748;37.600;2023-04-25T10:08:49;15.58;68.16
76577;DHT22;65441;44.748;37.600;2023-04-25T10:12:05;15.47;69.14
76577;DHT22;65441;44.748;37.600;2023-04-25T10:14:35;15.41;70.84
76577;DHT22;65441;44.748;37.600;2023-04-25T10:17:04;15.53;70.35
76577;DHT22;65441;44.748;37.600;2023-04-25T10:19:33;15.22;70.40
76577;DHT22;65441;44.748;37.600;2023-04-25T10:22:08;14.92;72.25
76577;DHT22;65441;44.748;37.600;2023-04-25T10:24:38;14.91;70.87
76577;DHT22;65441;44.748;37.600;2023-04-25T10:27:08;14.75;70.99
76577;DHT22;65441;44.748;37.600;2023-04-25T10:29:37;14.67;73.01
76577;DHT22;65441;44.748;37.600;2023-04-25T10:32:08;14.95;70.87
76577;DHT22;65441;44.748;37.600;2023-04-25T10:34:41;14.78;71.77
76577;DHT22;65441;44.748;37.600;2023-04-25T10:37:15;14.58;72.58
76577;DHT22;65441;44.748;37.600;2023-04-25T10:39:44;14.48;74.32
76577;DHT22;65441;44.748;37.600;2023-04-25T10:42:14;14.92;71.70
76577;DHT22;65441;44.748;37.600;2023-04-25T10:45:01;14.87;71.45
76577;DHT22;65441;44.748;37.600;2023-04-25T10:47:35;14.97;72.20
76577;DHT22;65441;44.748;37.600;2023-04-25T10:50:08;14.80;72.95
76577;DHT22;65441;44.748;37.600;2023-04-25T10:52:40;14.73;71.65
76577;DHT22;65441;44.748;37.600;2023-04-25T10:55:09;14.65;70.45
76577;DHT22;65441;44.748;37.600;2023-04-25T10:57:40;14.69;71.35
76577;DHT22;65441;44.748;37.600;2023-04-25T11:00:12;14.52;72.94
76577;DHT22;65441;44.748;37.600;2023-04-25T11:02:44;14.39;74.25
76577;DHT22;65441;44.748;37.600;2023-04-25T11:05:22;14.59;72.61
76577;DHT22;65441;44.748;37.600;2023-04-25T11:07:54;15.00;71.79
76577;DHT22;65441;44.748;37.600;2023-04-25T11:10:25;15.11;71.71
76577;DHT22;65441;44.748;37.600;2023-04-25T11:12:55;15.10;70.33
76577;DHT22;65441;44.748;37.600;2023-04-25T11:15:25;15.15;70.19
76577;DHT22;65441;44.748;37.600;2023-04-25T11:17:54;15.14;69.23
76577;DHT22;65441;44.748;37.600;2023-04-25T11:20:25;15.15;69.25
76577;DHT22;65441;44.748;37.600;2023-04-25T11:22:59;15.51;69.21
76577;DHT22;65441;44.748;37.600;2023-04-25T11:25:28;15.86;69.45
76577;DHT22;65441;44.748;37.600;2023-04-25T11:27:59;15.73;66.04
76577;DHT22;65441;44.748;37.600;2023-04-25T11:30:28;16.05;64.47
76577;DHT22;65441;44.748;37.600;2023-04-25T11:32:58;15.77;67.58
76577;DHT22;65441;44.748;37.600;2023-04-25T11:35:30;16.03;64.16
76577;DHT22;65441;44.748;37.600;2023-04-25T11:38:02;16.21;65.44
76577;DHT22;65441;44.748;37.600;2023-04-25T11:40:31;16.45;66.12
76577;DHT22;65441;44.748;37.600;2023-04-25T11:43:01;16.56;67.81
76577;DHT22;65441;44.748;37.600;2023-04-25T11:45:30;16.67;64.79
76577;DHT22;65441;44.748;37.600;2023-04-25T11:47:59;16.88;62.36
76577;DHT22;65441;44.748;37.600;2023-04-25T11:50:30;16.39;62.88
76577;DHT22;65441;44.748;37.600;2023-04-25T11:52:58;16.52;64.04
76577;DHT22;65441;44.748;37.600;2023-04-25T11:55:30;16.74;63.41
76577;DHT22;65441;44.748;37.600;2023-04-25T11:58:00;16.94;64.44
76577;DHT22;65441;44.748;37.600;2023-04-25T12:00:29;16.76;63.65
76577;DHT22;65441;44.748;37.600;2023-04-25T12:02:58;16.51;64.66
76577;DHT22;65441;44.748;37.600;2023-04-25T12:05:29;16.67;63.63
76577;DHT22;65441;44.748;37.600;2023-04-25T12:08:12;16.60;63.18
76577;DHT22;65441;44.748;37.600;2023-04-25T12:10:44;16.51;65.06
76577;DHT22;65441;44.748;37.600;2023-04-25T12:13:21;16.20;64.75
76577;DHT22;65441;44.748;37.600;2023-04-25T12:15:50;16.26;65.72
76577;DHT22;65441;44.748;37.600;2023-04-25T12:18:20;16.67;63.17
76577;DHT22;65441;44.748;37.600;2023-04-25T12:20:49;16.57;63.31
76577;DHT22;65441;44.748;37.600;2023-04-25T12:23:25;16.69;62.62
76577;DHT22;65441;44.748;37.600;2023-04-25T12:25:56;16.29;66.81
76577;DHT22;65441;44.748;37.600;2023-04-25T12:28:25;16.26;64.30
76577;DHT22;65441;44.748;37.600;2023-04-25T12:30:56;16.12;65.23
76577;DHT22;65441;44.748;37.600;2023-04-25T12:33:27;16.13;64.59
76577;DHT22;65441;44.748;37.600;2023-04-25T12:35:57;16.32;66.63
76577;DHT22;65441;44.748;37.600;2023-04-25T12:38:27;16.47;65.27
76577;DHT22;65441;44.748;37.600;2023-04-25T12:40:58;16.32;65.85
76577;DHT22;65441;44.748;37.600;2023-04-25T12:43:28;16.44;63.66
76577;DHT22;65441;44.748;37.600;2023-04-25T12:45:57;16.37;65.26
76577;DHT22;65441;44.748;37.600;2023-04-25T12:48:26;16.12;66.91
76577;DHT22;65441;44.748;37.600;2023-04-25T12:50:55;16.27;64.40
76577;DHT22;65441;44.748;37.600;2023-04-25T12:53:24;16.32;66.06
76577;DHT22;65441;44.748;37.600;2023-04-25T12:55:53;16.30;64.21
76577;DHT22;65441;44.748;37.600;2023-04-25T12:58:23;16.05;65.18
76577;DHT22;65441;44.748;37.600;2023-04-25T13:00:53;15.91;66.25
76577;DHT22;65441;44.748;37.600;2023-04-25T13:03:22;15.86;65.88
76577;DHT22;65441;44.748;37.600;2023-04-25T13:05:51;15.66;66.06
76577;DHT22;65441;44.748;37.600;2023-04-25T13:08:20;15.53;66.48
76577;DHT22;65441;44.748;37.600;2023-04-25T13:10:49;15.59;66.70
76577;DHT22;65441;44.748;37.600;2023-04-25T13:13:18;15.44;66.72
76577;DHT22;65441;44.748;37.600;2023-04-25T13:15:49;15.39;68.13
76577;DHT22;65441;44.748;37.600;2023-04-25T13:18:18;15.52;66.62
76577;DHT22;65441;44.748;37.600;2023-04-25T13:20:47;15.49;66.83
76577;DHT22;65441;44.748;37.600;2023-04-25T13:23:16;15.52;67.23
76577;DHT22;65441;44.748;37.600;2023-04-25T13:25:45;15.39;67.78
76577;DHT22;65441;44.748;37.600;2023-04-25T13:28:14;15.29;68.89
76577;DHT22;65441;44.748;37.600;2023-04-25T13:30:44;15.12;70.39
76577;DHT22;65441;44.748;37.600;2023-04-25T13:33:15;14.96;70.06
76577;DHT22;65441;44.748;37.600;2023-04-25T13:35:45;15.08;68.39
76577;DHT22;65441;44.748;37.600;2023-04-25T13:38:21;14.80;70.13
76577;DHT22;65441;44.748;37.600;2023-04-25T13:40:51;14.80;71.11
76577;DHT22;65441;44.748;37.600;2023-04-25T13:43:22;14.68;70.41
76577;DHT22;65441;44.748;37.600;2023-04-25T13:45:53;14.62;69.40
76577;DHT22;65441;44.748;37.600;2023-04-25T13:48:27;14.58;70.61
76577;DHT22;65441;44.748;37.600;2023-04-25T13:50:56;14.69;69.57
76577;DHT22;65441;44.748;37.600;2023-04-25T13:53:27;14.66;69.53
76577;DHT22;65441;44.748;37.600;2023-04-25T13:55:56;14.86;70.77
76577;DHT22;65441;44.748;37.600;2023-04-25T13:58:25;14.83;71.93
76577;DHT22;65441;44.748;37.600;2023-04-25T14:00:54;15.06;71.04
76577;DHT22;65441;44.748;37.600;2023-04-25T14:03:25;15.24;70.51
76577;DHT22;65441;44.748;37.600;2023-04-25T14:05:54;15.09;70.27
76577;DHT22;65441;44.748;37.600;2023-04-25T14:08:27;15.21;70.60
76577;DHT22;65441;44.748;37.600;2023-04-25T14:11:00;15.23;71.64
76577;DHT22;65441;44.748;37.600;2023-04-25T14:13:34;15.22;70.76
76577;DHT22;65441;44.748;37.600;2023-04-25T14:16:07;15.23;71.48
76577;DHT22;65441;44.748;37.600;2023-04-25T14:18:39;15.26;69.76
76577;DHT22;65441;44.748;37.600;2023-04-25T14:21:10;15.10;71.39
76577;DHT22;65441;44.748;37.600;2023-04-25T14:23:41;14.93;72.52
76577;DHT22;65441;44.748;37.600;2023-04-25T14:26:13;14.67;72.90
76577;DHT22;65441;44.748;37.600;2023-04-25T14:28:46;14.36;74.16
76577;DHT22;65441;44.748;37.600;2023-04-25T14:31:20;14.04;75.88
76577;DHT22;65441;44.748;37.600;2023-04-25T14:33:53;14.04;76.66
76577;DHT22;65441;44.748;37.600;2023-04-25T14:36:26;14.20;75.60
76577;DHT22;65441;44.748;37.600;2023-04-25T14:39:07;14.04;76.27
76577;DHT22;65441;44.748;37.600;2023-04-25T14:41:43;14.03;75.56
76577;DHT22;65441;44.748;37.600;2023-04-25T14:44:14;14.08;75.93
76577;DHT22;65441;44.748;37.600;2023-04-25T14:46:46;14.01;76.06
76577;DHT22;65441;44.748;37.600;2023-04-25T14:49:20;13.96;75.07
76577;DHT22;65441;44.748;37.600;2023-04-25T14:51:51;13.82;74.58
76577;DHT22;65441;44.748;37.600;2023-04-25T14:54:25;13.81;74.54
76577;DHT22;65441;44.748;37.600;2023-04-25T14:57:00;13.68;74.07
76577;DHT22;65441;44.748;37.600;2023-04-25T14:59:31;13.66;74.69
76577;DHT22;65441;44.748;37.600;2023-04-25T15:02:01;13.52;75.20
76577;DHT22;65441;44.748;37.600;2023-04-25T15:04:31;13.43;76.24
76577;DHT22;65441;44.748;37.600;2023-04-25T15:07:01;13.45;77.31
76577;DHT22;65441;44.748;37.600;2023-04-25T15:09:31;13.36;76.92
76577;DHT22;65441;44.748;37.600;2023-04-25T15:12:00;13.43;77.39
76577;DHT22;65441;44.748;37.600;2023-04-25T15:14:29;13.38;78.65
76577;DHT22;65441;44.748;37.600;2023-04-25T15:16:58;13.37;77.61
76577;DHT22;65441;44.748;37.600;2023-04-25T15:19:27;13.38;77.02
76577;DHT22;65441;44.748;37.600;2023-04-25T15:21:58;13.31;77.60
76577;DHT22;65441;44.748;37.600;2023-04-25T15:24:30;13.23;78.44
76577;DHT22;65441;44.748;37.600;2023-04-25T15:26:59;12.90;79.46
76577;DHT22;65441;44.748;37.600;2023-04-25T15:29:28;12.69;80.96
76577;DHT22;65441;44.748;37.600;2023-04-25T15:31:57;12.71;81.24
76577;DHT22;65441;44.748;37.600;2023-04-25T15:34:26;12.61;81.73
76577;DHT22;65441;44.748;37.600;2023-04-25T15:36:57;12.60;80.82
76577;DHT22;65441;44.748;37.600;2023-04-25T15:39:26;12.57;80.95
76577;DHT22;65441;44.748;37.600;2023-04-25T15:41:55;12.52;80.73
76577;DHT22;65441;44.748;37.600;2023-04-25T15:44:25;12.33;81.71
76577;DHT22;65441;44.748;37.600;2023-04-25T15:47:12;12.36;81.50
76577;DHT22;65441;44.748;37.600;2023-04-25T15:49:42;12.35;81.72
76577;DHT22;65441;44.748;37.600;2023-04-25T15:52:12;12.45;81.51